Time;durP1;ratioP1;P1;durP2;ratioP2;P2;SDS_P1;SDS_P2;PMS_P1;PMS_P2;Temp;Humidity;BMP_temperature;BMP_pressure;BME280_temperature;BME280_humidity;BME280_pressure;Samples;Min_cycle;Max_cycle;Signal;HPM_P1;HPM_P2
2022/07/12 00:00:29;;;;;;;3.08;1.38;;;20.70;65.50;;;;;;5042242;28;20044;-56
2022/07/12 00:02:55;;;;;;;3.00;1.08;;;20.80;65.50;;;;;;5043881;28;20036;-56
2022/07/12 00:05:20;;;;;;;2.30;1.20;;;20.70;65.40;;;;;;5043019;28;20060;-55
2022/07/12 00:07:46;;;;;;;3.15;0.90;;;20.70;65.40;;;;;;5043737;28;20817;-55
2022/07/12 00:10:11;;;;;;;2.13;1.15;;;20.70;65.50;;;;;;5024168;28;20029;-56
2022/07/12 00:12:38;;;;;;;2.15;1.02;;;20.70;65.40;;;;;;5042554;28;20029;-51
2022/07/12 00:15:04;;;;;;;1.50;0.88;;;20.70;65.40;;;;;;5042354;28;20025;-55
2022/07/12 00:17:29;;;;;;;1.77;1.00;;;20.70;65.40;;;;;;5042594;28;20047;-55
2022/07/12 00:19:55;;;;;;;3.13;1.30;;;20.70;65.30;;;;;;5024393;28;20503;-54
2022/07/12 00:22:22;;;;;;;2.45;1.02;;;20.70;65.40;;;;;;5042608;28;20107;-55
2022/07/12 00:24:47;;;;;;;2.85;0.95;;;20.70;65.40;;;;;;5042604;28;20092;-54
2022/07/12 00:27:13;;;;;;;1.77;0.90;;;20.70;65.30;;;;;;5024247;28;20124;-56
2022/07/12 00:29:38;;;;;;;1.60;1.02;;;20.70;65.40;;;;;;5041757;28;20035;-55
2022/07/12 00:32:04;;;;;;;1.88;1.10;;;20.80;65.40;;;;;;5042081;28;20095;-53
2022/07/12 00:34:30;;;;;;;1.85;0.80;;;20.70;65.30;;;;;;5042180;28;20104;-58
2022/07/12 00:36:55;;;;;;;2.03;1.10;;;20.70;65.30;;;;;;5042646;28;20033;-55
2022/07/12 00:39:21;;;;;;;1.90;0.80;;;20.70;65.30;;;;;;5023726;28;20021;-55
2022/07/12 00:41:49;;;;;;;1.45;0.98;;;20.70;65.30;;;;;;5041411;28;20081;-52
2022/07/12 00:44:15;;;;;;;2.05;1.00;;;20.70;65.30;;;;;;5023704;28;20344;-54
2022/07/12 00:46:40;;;;;;;2.08;0.98;;;20.70;65.30;;;;;;4991359;28;20433;-52
2022/07/12 00:49:06;;;;;;;1.55;0.98;;;20.70;65.20;;;;;;5023565;28;20032;-56
2022/07/12 00:51:32;;;;;;;1.85;0.73;;;20.70;65.20;;;;;;5024225;28;20565;-52
2022/07/12 00:53:58;;;;;;;2.78;0.90;;;20.70;65.20;;;;;;5023617;28;20033;-52
2022/07/12 00:56:23;;;;;;;1.35;0.60;;;20.70;65.20;;;;;;5024077;28;20232;-54
2022/07/12 00:58:49;;;;;;;1.70;0.95;;;20.70;65.20;;;;;;5041088;28;20427;-55
2022/07/12 01:01:14;;;;;;;2.80;0.82;;;20.70;65.20;;;;;;5041238;28;20198;-53
2022/07/12 01:03:40;;;;;;;3.55;0.73;;;20.70;65.20;;;;;;5041974;28;20550;-54
2022/07/12 01:06:07;;;;;;;3.10;0.98;;;20.70;65.20;;;;;;5007588;28;20032;-56
2022/07/12 01:08:32;;;;;;;1.35;0.93;;;20.70;65.20;;;;;;5023963;28;20031;-53
2022/07/12 01:10:58;;;;;;;0.93;0.63;;;20.70;65.20;;;;;;5022908;28;20477;-54
2022/07/12 01:13:24;;;;;;;2.72;0.93;;;20.70;65.20;;;;;;5008044;28;20043;-53
2022/07/12 01:15:49;;;;;;;1.25;0.60;;;20.70;65.20;;;;;;5023702;28;20025;-56
2022/07/12 01:18:15;;;;;;;3.13;0.90;;;20.70;65.20;;;;;;5023951;28;20029;-53
2022/07/12 01:20:41;;;;;;;2.50;0.93;;;20.70;65.10;;;;;;5023035;28;20032;-55
2022/07/12 01:23:08;;;;;;;1.80;0.70;;;20.70;65.10;;;;;;5007567;28;20035;-54
2022/07/12 01:25:33;;;;;;;1.85;0.73;;;20.70;65.10;;;;;;4987465;28;20095;-54
2022/07/12 01:27:59;;;;;;;1.65;0.80;;;20.70;65.10;;;;;;5021637;28;20037;-53
2022/07/12 01:30:24;;;;;;;1.95;0.80;;;20.70;65.10;;;;;;5032033;28;20036;-55
2022/07/12 01:32:50;;;;;;;1.05;0.60;;;20.60;65.10;;;;;;5041859;28;20408;-57
2022/07/12 01:35:16;;;;;;;1.75;0.77;;;20.70;65.10;;;;;;5023315;28;20041;-56
2022/07/12 01:37:41;;;;;;;1.65;0.85;;;20.70;65.20;;;;;;5023734;28;20109;-53
2022/07/12 01:40:09;;;;;;;1.45;0.80;;;20.70;65.10;;;;;;5022509;28;20071;-55
2022/07/12 01:42:34;;;;;;;1.77;0.80;;;20.70;65.20;;;;;;5024065;28;20059;-55
2022/07/12 01:45:00;;;;;;;1.30;0.77;;;20.70;65.20;;;;;;5024306;28;20037;-56
2022/07/12 01:47:28;;;;;;;1.10;0.85;;;20.70;65.40;;;;;;5023412;28;20063;-55
2022/07/12 01:49:54;;;;;;;1.30;0.70;;;20.70;65.50;;;;;;5003502;28;20017;-54
2022/07/12 01:52:19;;;;;;;1.17;0.77;;;20.70;65.60;;;;;;4986922;28;20030;-55
2022/07/12 01:54:45;;;;;;;1.23;0.60;;;20.70;65.60;;;;;;5006196;28;20030;-53
2022/07/12 01:57:10;;;;;;;1.23;0.80;;;20.70;65.70;;;;;;5040875;28;20025;-54
2022/07/12 01:59:36;;;;;;;0.82;0.70;;;20.70;65.80;;;;;;5006178;28;20026;-55
2022/07/12 02:02:02;;;;;;;0.75;0.57;;;20.70;65.80;;;;;;5023420;28;20033;-52
2022/07/12 02:04:28;;;;;;;1.30;0.60;;;20.70;65.90;;;;;;5006456;28;20127;-56
2022/07/12 02:06:53;;;;;;;1.52;0.60;;;20.70;65.90;;;;;;5039517;28;20702;-54
2022/07/12 02:09:18;;;;;;;3.45;0.50;;;20.70;66.00;;;;;;5011752;28;20145;-55
2022/07/12 02:11:45;;;;;;;5.40;1.10;;;20.70;65.90;;;;;;5027872;28;20026;-54
2022/07/12 02:14:12;;;;;;;1.63;0.85;;;20.70;65.90;;;;;;5051930;28;20099;-53
2022/07/12 02:16:38;;;;;;;1.38;0.52;;;20.70;65.90;;;;;;5027134;28;20032;-54
2022/07/12 02:19:03;;;;;;;1.05;0.68;;;20.70;65.90;;;;;;5021855;28;20029;-54
2022/07/12 02:21:28;;;;;;;1.02;0.60;;;20.70;66.00;;;;;;5039441;28;20037;-53
2022/07/12 02:23:54;;;;;;;1.20;0.60;;;20.70;66.50;;;;;;5039640;28;20029;-53
2022/07/12 02:26:20;;;;;;;0.52;0.50;;;20.70;66.00;;;;;;5039624;28;20790;-55
2022/07/12 02:28:45;;;;;;;0.75;0.50;;;20.60;65.90;;;;;;5039619;28;20085;-56
2022/07/12 02:31:10;;;;;;;1.75;1.15;;;20.70;66.00;;;;;;5021680;28;20489;-53
2022/07/12 02:33:36;;;;;;;1.77;0.68;;;20.70;65.90;;;;;;5040053;28;20029;-54
2022/07/12 02:36:02;;;;;;;1.42;0.80;;;20.70;66.00;;;;;;5022352;28;20116;-55
2022/07/12 02:38:27;;;;;;;1.15;0.52;;;20.70;65.90;;;;;;5021630;28;20049;-54
2022/07/12 02:40:53;;;;;;;0.75;0.70;;;20.70;65.90;;;;;;5039545;28;20731;-56
2022/07/12 02:43:22;;;;;;;1.70;0.60;;;20.70;65.90;;;;;;5040002;28;20119;-54
2022/07/12 02:45:48;;;;;;;0.95;0.55;;;20.70;65.90;;;;;;5023107;28;20025;-55
2022/07/12 02:48:13;;;;;;;1.55;0.60;;;20.70;65.90;;;;;;5040661;28;20025;-55
2022/07/12 02:50:39;;;;;;;2.63;0.55;;;20.60;65.80;;;;;;5022193;28;20033;-56
2022/07/12 02:53:05;;;;;;;2.17;0.60;;;20.60;65.80;;;;;;5022374;28;20033;-53
2022/07/12 02:55:31;;;;;;;0.95;0.65;;;20.60;65.80;;;;;;5025682;28;20431;-55
2022/07/12 02:57:56;;;;;;;1.20;0.70;;;20.60;65.80;;;;;;5044659;28;20029;-55
2022/07/12 03:00:22;;;;;;;0.85;0.50;;;20.60;65.80;;;;;;5042994;28;20098;-53
2022/07/12 03:02:47;;;;;;;1.50;0.50;;;20.60;65.80;;;;;;5044075;28;20033;-55
2022/07/12 03:05:13;;;;;;;1.08;0.70;;;20.60;65.90;;;;;;5044228;28;20571;-55
2022/07/12 03:07:38;;;;;;;1.23;0.60;;;20.70;65.80;;;;;;5044123;28;20033;-53
2022/07/12 03:10:04;;;;;;;1.13;0.68;;;20.60;65.80;;;;;;5020210;28;20051;-54
2022/07/12 03:12:30;;;;;;;0.55;0.43;;;20.60;65.80;;;;;;5025480;28;20508;-54
2022/07/12 03:14:55;;;;;;;1.00;0.63;;;20.70;65.80;;;;;;5026949;28;20033;-56
2022/07/12 03:17:21;;;;;;;0.70;0.47;;;20.60;65.80;;;;;;5043326;28;20029;-56
2022/07/12 03:19:46;;;;;;;0.85;0.80;;;20.60;65.80;;;;;;5026068;28;20029;-54
2022/07/12 03:22:12;;;;;;;0.85;0.65;;;20.60;65.80;;;;;;5025532;28;20035;-54
2022/07/12 03:24:37;;;;;;;1.05;0.50;;;20.60;65.80;;;;;;5044082;28;20033;-58
2022/07/12 03:27:03;;;;;;;1.70;0.50;;;20.60;66.40;;;;;;5043654;28;20071;-60
2022/07/12 03:29:29;;;;;;;1.63;0.57;;;20.60;65.80;;;;;;5043705;28;20454;-55
2022/07/12 03:31:54;;;;;;;0.82;0.55;;;20.60;65.80;;;;;;5042359;28;20056;-56
2022/07/12 03:34:20;;;;;;;0.82;0.80;;;20.60;65.80;;;;;;5043066;28;20045;-55
2022/07/12 03:36:45;;;;;;;0.70;0.65;;;20.60;65.80;;;;;;5043018;28;20023;-53
2022/07/12 03:39:11;;;;;;;0.88;0.57;;;20.60;65.80;;;;;;5043777;28;20391;-55
2022/07/12 03:41:36;;;;;;;1.90;0.80;;;20.60;65.80;;;;;;5008342;28;20037;-56
2022/07/12 03:44:02;;;;;;;0.52;0.40;;;20.60;65.80;;;;;;5009984;28;20060;-53
2022/07/12 03:46:27;;;;;;;0.68;0.57;;;20.60;65.80;;;;;;5043060;28;20104;-55
2022/07/12 03:48:53;;;;;;;1.50;0.70;;;20.60;65.80;;;;;;5042914;28;20082;-53
2022/07/12 03:51:18;;;;;;;0.77;0.70;;;20.60;65.80;;;;;;5025099;28;20544;-54
2022/07/12 03:53:44;;;;;;;1.05;0.52;;;20.60;65.80;;;;;;5025385;28;20025;-56
2022/07/12 03:57:13;;;;;;;0.68;0.63;;;20.60;65.80;;;;;;5042680;28;20064;-55
2022/07/12 03:58:55;;;;;;;0.90;0.60;;;20.60;65.80;;;;;;5022963;28;20535;-56
2022/07/12 04:01:20;;;;;;;0.85;0.55;;;20.60;65.80;;;;;;5022809;28;20042;-55
2022/07/12 04:03:46;;;;;;;0.77;0.65;;;20.60;65.80;;;;;;5040734;28;20049;-53
2022/07/12 04:06:11;;;;;;;1.77;0.70;;;20.60;65.80;;;;;;5044772;28;20043;-55
2022/07/12 04:08:37;;;;;;;1.17;0.63;;;20.60;65.80;;;;;;5041888;28;20243;-57
2022/07/12 04:11:02;;;;;;;0.80;0.70;;;20.60;65.70;;;;;;5043215;28;20083;-53
2022/07/12 04:13:28;;;;;;;0.80;0.65;;;20.60;65.80;;;;;;5024832;28;20045;-55
2022/07/12 04:15:54;;;;;;;2.22;1.05;;;20.60;65.70;;;;;;5042491;28;20084;-54
2022/07/12 04:18:20;;;;;;;2.30;1.00;;;20.60;65.50;;;;;;5025099;28;20064;-53
2022/07/12 04:20:45;;;;;;;3.00;1.05;;;20.60;65.40;;;;;;5041990;28;20139;-58
2022/07/12 04:23:11;;;;;;;8.10;1.38;;;20.70;65.40;;;;;;5042470;28;20021;-54
2022/07/12 04:25:36;;;;;;;3.55;0.93;;;20.70;65.40;;;;;;5025492;28;20033;-55
2022/07/12 04:28:02;;;;;;;17.90;1.88;;;20.70;65.30;;;;;;5042935;28;20104;-52
2022/07/12 04:30:29;;;;;;;13.77;2.15;;;20.70;65.30;;;;;;5024031;28;20037;-54
2022/07/12 04:32:54;;;;;;;14.88;1.63;;;20.70;65.30;;;;;;5024813;28;20037;-56
2022/07/12 04:35:19;;;;;;;6.05;1.60;;;20.70;65.40;;;;;;5042439;28;20048;-54
2022/07/12 04:37:45;;;;;;;8.75;2.33;;;20.70;65.40;;;;;;5024335;28;20021;-53
2022/07/12 04:40:11;;;;;;;8.85;1.85;;;20.70;65.50;;;;;;5040934;28;20143;-54
2022/07/12 04:42:37;;;;;;;16.75;2.05;;;20.80;65.50;;;;;;5042684;28;20056;-56
2022/07/12 04:45:02;;;;;;;11.90;2.45;;;20.80;65.40;;;;;;5042071;28;20502;-54
2022/07/12 04:47:28;;;;;;;8.50;2.00;;;20.90;65.30;;;;;;5041801;28;20082;-55
2022/07/12 04:49:53;;;;;;;11.05;1.90;;;20.80;65.30;;;;;;5041184;28;20033;-55
2022/07/12 04:52:19;;;;;;;14.10;2.22;;;20.90;65.40;;;;;;5041449;28;20112;-57
2022/07/12 04:54:44;;;;;;;12.40;2.42;;;20.90;65.40;;;;;;5042284;28;20051;-55
2022/07/12 04:57:10;;;;;;;15.70;3.65;;;20.90;65.50;;;;;;5040836;28;20705;-55
2022/07/12 04:59:35;;;;;;;13.65;2.28;;;20.90;65.60;;;;;;5041718;28;20033;-53
2022/07/12 05:02:01;;;;;;;11.60;1.65;;;20.80;65.60;;;;;;5041295;28;20067;-52
2022/07/12 05:04:27;;;;;;;9.05;1.95;;;20.90;65.60;;;;;;5023513;28;20033;-53
2022/07/12 05:06:52;;;;;;;15.00;1.70;;;20.80;65.60;;;;;;5041946;28;20025;-54
2022/07/12 05:09:18;;;;;;;11.40;2.00;;;20.80;65.60;;;;;;5024000;28;20029;-54
2022/07/12 05:11:43;;;;;;;9.95;2.10;;;20.80;65.50;;;;;;5041955;28;20032;-53
2022/07/12 05:14:09;;;;;;;10.45;2.08;;;20.80;65.50;;;;;;5026287;28;20539;-52
2022/07/12 05:16:34;;;;;;;10.40;2.78;;;20.80;65.50;;;;;;5024700;28;20040;-57
2022/07/12 05:19:01;;;;;;;16.23;2.28;;;20.80;65.50;;;;;;5023646;28;20032;-57
2022/07/12 05:21:26;;;;;;;16.55;2.13;;;20.80;65.40;;;;;;5041683;28;20507;-57
2022/07/12 05:23:52;;;;;;;7.35;2.53;;;20.80;65.40;;;;;;5024070;28;20060;-55
2022/07/12 05:26:18;;;;;;;15.50;2.92;;;20.80;66.00;;;;;;5041060;28;20036;-53
2022/07/12 05:28:44;;;;;;;8.32;2.15;;;20.80;66.50;;;;;;5021511;28;20044;-53
2022/07/12 05:31:10;;;;;;;14.23;2.17;;;20.80;66.80;;;;;;5040245;28;20104;-55
2022/07/12 05:33:35;;;;;;;6.25;2.10;;;20.80;66.80;;;;;;5041737;28;20061;-56
2022/07/12 05:36:01;;;;;;;7.25;2.67;;;20.80;66.90;;;;;;5041267;28;20053;-55
2022/07/12 05:38:26;;;;;;;13.85;3.10;;;20.80;66.80;;;;;;5021956;28;20059;-54
2022/07/12 05:40:52;;;;;;;9.93;2.40;;;20.70;66.80;;;;;;5024326;28;20112;-55
2022/07/12 05:43:17;;;;;;;11.90;2.72;;;20.80;66.80;;;;;;5042267;28;20625;-55
2022/07/12 05:45:43;;;;;;;19.45;3.10;;;20.80;66.80;;;;;;5042364;28;20435;-52
2022/07/12 05:48:08;;;;;;;16.27;2.80;;;20.80;66.80;;;;;;5041452;28;20096;-56
2022/07/12 05:50:34;;;;;;;14.68;2.72;;;20.70;66.70;;;;;;5041369;28;20032;-54
2022/07/12 05:55:44;;;;;;;8.20;2.80;;;20.70;66.50;;;;;;5042232;28;20056;-56
2022/07/12 05:58:10;;;;;;;8.55;3.08;;;20.70;66.50;;;;;;5041956;28;20082;-53
2022/07/12 06:00:36;;;;;;;9.38;2.63;;;20.70;66.50;;;;;;5041816;28;20033;-54
2022/07/12 06:03:01;;;;;;;10.50;2.58;;;20.70;66.40;;;;;;5041570;28;20028;-55
2022/07/12 06:05:27;;;;;;;14.18;3.55;;;20.80;66.50;;;;;;5041973;28;20127;-54
2022/07/12 06:07:52;;;;;;;17.58;3.78;;;20.80;66.50;;;;;;5042157;28;20025;-56
2022/07/12 06:10:18;;;;;;;9.25;3.38;;;20.70;66.40;;;;;;5023684;28;20033;-56
2022/07/12 06:12:43;;;;;;;11.00;3.38;;;20.70;66.50;;;;;;5023834;28;20539;-56
2022/07/12 06:15:10;;;;;;;15.32;4.75;;;20.70;66.50;;;;;;5041920;28;20539;-54
2022/07/12 06:17:35;;;;;;;14.70;3.65;;;20.80;66.50;;;;;;5024267;28;20437;-52
2022/07/12 06:20:01;;;;;;;12.80;4.32;;;20.80;66.40;;;;;;5040619;28;20044;-57
2022/07/12 06:22:27;;;;;;;17.13;3.97;;;20.80;66.40;;;;;;5040961;28;20500;-54
2022/07/12 06:24:52;;;;;;;8.82;3.72;;;20.80;66.30;;;;;;5041340;28;20021;-56
2022/07/12 06:27:18;;;;;;;13.00;4.72;;;20.80;66.30;;;;;;5041713;28;20053;-53
2022/07/12 06:29:47;;;;;;;12.48;3.75;;;20.80;66.30;;;;;;5022717;28;20017;-57
2022/07/12 06:32:16;;;;;;;10.73;3.92;;;20.80;66.30;;;;;;5040925;28;20111;-54
2022/07/12 06:34:42;;;;;;;10.02;4.10;;;20.70;66.10;;;;;;5006707;28;20494;-54
2022/07/12 06:37:08;;;;;;;10.10;4.43;;;20.70;66.10;;;;;;5040424;28;20048;-52
2022/07/12 06:39:34;;;;;;;16.27;4.43;;;20.70;66.00;;;;;;5038791;28;20516;-54
2022/07/12 06:42:03;;;;;;;10.55;4.25;;;20.70;66.00;;;;;;5022281;28;20465;-51
2022/07/12 06:44:32;;;;;;;10.13;3.80;;;20.70;66.10;;;;;;5022166;28;20364;-53
2022/07/12 06:46:58;;;;;;;8.07;4.03;;;20.70;66.20;;;;;;5021045;28;20044;-56
2022/07/12 06:49:23;;;;;;;13.50;3.95;;;20.80;66.30;;;;;;5037862;28;20446;-53
2022/07/12 06:51:49;;;;;;;8.65;5.72;;;20.70;66.40;;;;;;5039320;28;20092;-52
2022/07/12 06:54:14;;;;;;;9.07;4.72;;;20.70;66.30;;;;;;5021163;28;20068;-53
2022/07/12 06:56:41;;;;;;;10.35;4.93;;;20.70;66.40;;;;;;5039267;28;20033;-54
2022/07/12 06:59:10;;;;;;;12.70;5.32;;;20.70;66.30;;;;;;5038950;28;20032;-54
2022/07/12 07:01:36;;;;;;;11.25;5.75;;;20.70;66.20;;;;;;5015381;28;20029;-55
2022/07/12 07:04:02;;;;;;;15.38;5.70;;;20.70;66.20;;;;;;5038828;28;20074;-53
2022/07/12 07:06:27;;;;;;;10.45;6.25;;;20.70;66.10;;;;;;5038070;28;20083;-54
2022/07/12 07:08:53;;;;;;;12.02;5.97;;;20.70;66.30;;;;;;5038372;28;20108;-56
2022/07/12 07:11:18;;;;;;;13.57;6.20;;;20.70;66.20;;;;;;5037675;28;20451;-52
2022/07/12 07:13:44;;;;;;;11.80;6.65;;;20.70;66.30;;;;;;5037986;28;20045;-54
2022/07/12 07:16:09;;;;;;;16.05;6.95;;;20.80;66.30;;;;;;5003795;28;20037;-53
2022/07/12 07:18:35;;;;;;;13.73;7.30;;;20.80;66.30;;;;;;5037987;28;20126;-55
2022/07/12 07:21:00;;;;;;;13.70;6.15;;;20.70;66.30;;;;;;5037657;28;20045;-54
2022/07/12 07:23:26;;;;;;;10.13;7.20;;;20.70;66.30;;;;;;5038020;28;20033;-55
2022/07/12 07:25:51;;;;;;;9.73;6.43;;;20.70;66.20;;;;;;5038019;28;20025;-55
2022/07/12 07:28:17;;;;;;;9.80;6.57;;;20.80;66.30;;;;;;5036895;28;20276;-53
2022/07/12 07:30:55;;;;;;;19.52;8.00;;;20.70;66.30;;;;;;5031546;28;20036;-55
2022/07/12 07:33:21;;;;;;;17.88;7.88;;;20.70;65.90;;;;;;5037979;28;20032;-57
2022/07/12 07:35:47;;;;;;;16.83;8.20;;;20.70;66.20;;;;;;5037640;28;20029;-58
2022/07/12 07:38:12;;;;;;;15.05;8.65;;;20.70;66.70;;;;;;5020176;28;20128;-55
2022/07/12 07:40:38;;;;;;;18.50;8.02;;;20.70;66.80;;;;;;5036315;28;20029;-56
2022/07/12 07:43:03;;;;;;;13.43;7.95;;;20.70;66.60;;;;;;5041276;28;20505;-56
2022/07/12 07:45:29;;;;;;;17.45;9.30;;;20.70;66.30;;;;;;5042063;28;20507;-56
2022/07/12 07:47:55;;;;;;;17.73;8.88;;;20.70;66.00;;;;;;5042348;28;20037;-57
2022/07/12 07:50:20;;;;;;;10.13;7.82;;;20.70;65.90;;;;;;5041279;28;20056;-55
2022/07/12 07:52:48;;;;;;;13.43;8.40;;;20.70;65.60;;;;;;5023989;28;20021;-55
2022/07/12 07:55:14;;;;;;;9.32;8.10;;;20.70;65.60;;;;;;5042010;28;20036;-56
2022/07/12 07:57:39;;;;;;;10.38;8.75;;;20.70;65.40;;;;;;5004666;28;20420;-55
2022/07/12 08:00:05;;;;;;;10.02;8.65;;;20.70;65.20;;;;;;5020778;28;20286;-56
2022/07/12 08:02:31;;;;;;;10.65;8.15;;;20.70;65.20;;;;;;5019915;28;20079;-55
2022/07/12 08:04:56;;;;;;;11.05;8.32;;;20.60;65.10;;;;;;5041510;28;20036;-56
2022/07/12 08:07:22;;;;;;;9.98;8.98;;;20.60;65.00;;;;;;5003821;28;20577;-56
2022/07/12 08:09:47;;;;;;;9.75;8.18;;;20.70;64.90;;;;;;5003329;28;20033;-53
2022/07/12 08:12:13;;;;;;;8.82;7.93;;;20.60;64.70;;;;;;5032950;28;20017;-58
2022/07/12 08:14:39;;;;;;;10.85;8.52;;;20.60;64.60;;;;;;5023337;28;20093;-55
2022/07/12 08:17:04;;;;;;;8.20;7.50;;;20.60;64.80;;;;;;5041083;28;20025;-55
2022/07/12 08:19:30;;;;;;;11.70;8.18;;;20.60;64.60;;;;;;5040983;28;20459;-56
2022/07/12 08:21:55;;;;;;;9.88;8.95;;;20.60;64.50;;;;;;5023038;28;20443;-54
2022/07/12 08:24:21;;;;;;;7.80;7.03;;;20.60;64.30;;;;;;5039891;28;20037;-55
2022/07/12 08:26:46;;;;;;;9.48;8.65;;;20.60;64.20;;;;;;5040491;28;20029;-55
2022/07/12 08:29:12;;;;;;;9.50;8.75;;;20.60;64.10;;;;;;5022590;28;20326;-56
2022/07/12 08:31:37;;;;;;;8.88;8.13;;;20.60;64.10;;;;;;5040804;28;20396;-53
2022/07/12 08:34:03;;;;;;;8.93;8.05;;;20.60;64.10;;;;;;5040491;28;20048;-56
2022/07/12 08:36:28;;;;;;;8.30;7.50;;;20.60;64.10;;;;;;5040693;28;20120;-56
2022/07/12 08:38:54;;;;;;;8.15;7.43;;;20.70;64.10;;;;;;5039648;28;20107;-56
2022/07/12 08:41:19;;;;;;;8.35;7.65;;;20.60;64.10;;;;;;5039526;28;20037;-55
2022/07/12 08:43:45;;;;;;;7.72;7.13;;;20.70;64.30;;;;;;5040200;28;20555;-55
2022/07/12 08:46:12;;;;;;;8.23;7.50;;;20.60;63.80;;;;;;5023114;28;20021;-57
2022/07/12 08:48:37;;;;;;;8.05;7.15;;;20.50;63.50;;;;;;5040161;28;20565;-57
2022/07/12 08:51:07;;;;;;;7.32;6.65;;;20.50;64.20;;;;;;5022622;28;20044;-55
2022/07/12 08:53:33;;;;;;;7.90;7.20;;;20.60;64.10;;;;;;5022231;28;20106;-55
2022/07/12 08:55:58;;;;;;;7.10;6.40;;;20.60;63.70;;;;;;5005981;28;20032;-56
2022/07/12 08:58:24;;;;;;;6.88;6.18;;;20.50;62.90;;;;;;5021757;28;20503;-54
2022/07/12 09:00:50;;;;;;;6.40;5.82;;;20.50;63.00;;;;;;5005254;28;20029;-53
2022/07/12 09:03:15;;;;;;;6.57;5.97;;;20.50;63.00;;;;;;5021888;28;20139;-57
2022/07/12 09:05:47;;;;;;;6.90;6.30;;;20.30;62.40;;;;;;5022772;28;20417;-56
2022/07/12 09:08:13;;;;;;;5.75;5.35;;;20.40;62.90;;;;;;4995879;28;20442;-54
2022/07/12 09:10:59;;;;;;;5.70;5.00;;;20.50;63.20;;;;;;5021169;28;20022;-57
2022/07/12 09:13:54;;;;;;;5.78;5.20;;;20.60;62.80;;;;;;5039069;28;20136;-57
2022/07/12 09:16:24;;;;;;;7.53;5.07;;;20.60;62.80;;;;;;5021823;28;20033;-55
2022/07/12 09:18:50;;;;;;;11.38;5.20;;;20.60;62.80;;;;;;5038636;28;20609;-55
2022/07/12 09:21:23;;;;;;;13.48;5.28;;;20.60;62.70;;;;;;5039069;28;20048;-55
2022/07/12 09:23:59;;;;;;;11.23;5.50;;;20.60;63.00;;;;;;5021785;28;20029;-56
2022/07/12 09:26:35;;;;;;;10.25;4.90;;;20.60;63.10;;;;;;5038790;28;20097;-56
2022/07/12 09:29:10;;;;;;;7.40;4.57;;;20.60;63.00;;;;;;5019862;28;20491;-57
2022/07/12 09:36:06;;;;;;;14.32;5.05;;;20.50;62.20;;;;;;5005502;28;20168;-56
2022/07/12 09:37:12;;;;;;;10.70;4.40;;;20.50;62.50;;;;;;5039765;28;20086;-57
2022/07/12 09:39:38;;;;;;;7.63;3.97;;;20.60;62.40;;;;;;5021274;28;20037;-57
2022/07/12 09:42:04;;;;;;;6.03;3.20;;;20.60;62.10;;;;;;5004626;28;20059;-55
2022/07/12 09:44:30;;;;;;;8.20;3.75;;;20.60;62.00;;;;;;5039639;28;20033;-57
2022/07/12 09:46:55;;;;;;;9.15;3.17;;;20.50;61.90;;;;;;5005248;28;20052;-56
2022/07/12 09:49:21;;;;;;;5.22;3.10;;;20.60;61.30;;;;;;4990819;28;20424;-54
2022/07/12 09:51:47;;;;;;;7.28;3.78;;;20.60;61.00;;;;;;4984272;28;20031;-54
2022/07/12 09:54:13;;;;;;;5.80;3.30;;;20.60;61.40;;;;;;4985177;28;20060;-57
2022/07/12 09:56:39;;;;;;;4.65;2.80;;;20.60;61.80;;;;;;4985483;28;20037;-56
2022/07/12 09:59:05;;;;;;;9.18;2.90;;;20.70;61.70;;;;;;5003965;28;20082;-57
2022/07/12 10:01:30;;;;;;;4.68;2.85;;;20.60;61.80;;;;;;5021032;28;20053;-54
2022/07/12 10:03:57;;;;;;;6.38;4.10;;;20.60;61.80;;;;;;5020333;28;20649;-53
2022/07/12 10:06:27;;;;;;;8.00;3.22;;;20.60;61.80;;;;;;5004912;28;20037;-55
2022/07/12 10:08:53;;;;;;;7.47;3.03;;;20.60;61.80;;;;;;5020191;28;20643;-58
2022/07/12 10:11:19;;;;;;;5.10;3.00;;;20.70;61.80;;;;;;5003970;28;20168;-57
2022/07/12 10:13:45;;;;;;;5.05;3.13;;;20.70;61.70;;;;;;5001591;28;20113;-56
2022/07/12 10:16:10;;;;;;;5.32;2.88;;;20.70;61.60;;;;;;5000846;28;20143;-55
2022/07/12 10:18:36;;;;;;;5.38;2.35;;;20.70;61.50;;;;;;5006470;28;20063;-56
2022/07/12 10:21:01;;;;;;;6.57;2.50;;;20.70;60.10;;;;;;5019644;28;20111;-56
2022/07/12 10:23:34;;;;;;;5.45;2.53;;;20.60;60.10;;;;;;5000547;28;20042;-56
2022/07/12 10:26:14;;;;;;;6.03;1.92;;;20.60;61.00;;;;;;5000869;28;20025;-57
2022/07/12 10:29:00;;;;;;;4.68;2.70;;;20.60;60.90;;;;;;5023410;28;20037;-56
2022/07/12 10:31:36;;;;;;;3.35;2.13;;;20.70;60.90;;;;;;5037917;28;20227;-56
2022/07/12 10:34:12;;;;;;;2.92;1.73;;;20.60;58.70;;;;;;5022250;28;20029;-56
2022/07/12 10:36:55;;;;;;;;;;;20.60;60.50;;;;;;5040582;28;20036;-56
2022/07/12 10:39:30;;;;;;;3.88;2.05;;;20.70;60.30;;;;;;5038867;28;19967;-52
2022/07/12 10:42:07;;;;;;;3.97;1.77;;;20.60;60.30;;;;;;5021362;28;20036;-55
2022/07/12 10:44:37;;;;;;;5.53;2.13;;;20.60;60.10;;;;;;5038197;28;20516;-58
2022/07/12 10:47:03;;;;;;;3.50;1.77;;;20.60;58.30;;;;;;5021606;28;20032;-57
2022/07/12 10:49:30;;;;;;;4.97;1.95;;;20.60;58.80;;;;;;5020604;28;20067;-57
2022/07/12 10:52:10;;;;;;;1.75;1.63;;;20.50;57.70;;;;;;5020881;28;20036;-58
2022/07/12 10:54:40;;;;;;;1.63;1.52;;;20.60;59.30;;;;;;5038185;28;20082;-56
2022/07/12 10:57:05;;;;;;;2.63;1.85;;;20.60;59.50;;;;;;5021040;28;20124;-58
2022/07/12 10:59:33;;;;;;;2.47;1.60;;;20.60;58.50;;;;;;5038239;28;20118;-57
2022/07/12 11:02:00;;;;;;;3.20;1.60;;;20.70;59.50;;;;;;5020928;28;20033;-58
2022/07/12 11:04:25;;;;;;;1.52;1.20;;;20.70;57.30;;;;;;5038258;28;20397;-58
2022/07/12 11:06:55;;;;;;;1.80;1.70;;;20.70;57.80;;;;;;5020700;28;20037;-56
2022/07/12 11:09:20;;;;;;;2.58;1.55;;;20.60;57.90;;;;;;5000463;28;20263;-57
2022/07/12 11:11:50;;;;;;;3.65;1.70;;;20.60;57.50;;;;;;5000941;28;20026;-56
2022/07/12 11:14:25;;;;;;;1.80;1.48;;;20.60;57.80;;;;;;5041998;23;20757;-57
2022/07/12 11:16:54;;;;;;;2.55;1.55;;;20.60;58.10;;;;;;5050652;28;20145;-56
2022/07/12 11:19:23;;;;;;;2.88;1.42;;;20.60;58.00;;;;;;5077091;28;20035;-57
2022/07/12 11:21:55;;;;;;;2.85;1.55;;;20.60;57.00;;;;;;5062281;28;20469;-57
2022/07/12 11:24:21;;;;;;;1.70;1.27;;;20.60;57.40;;;;;;5059080;28;20036;-56
2022/07/12 11:26:47;;;;;;;1.65;1.30;;;20.60;57.70;;;;;;5061215;28;20056;-58
2022/07/12 11:29:12;;;;;;;1.73;1.20;;;20.70;57.40;;;;;;5060825;28;20052;-55
2022/07/12 11:31:38;;;;;;;1.80;1.30;;;20.70;57.70;;;;;;5044105;28;20515;-57
2022/07/12 11:34:03;;;;;;;2.72;1.58;;;20.60;55.90;;;;;;5061555;28;20629;-59
2022/07/12 11:36:29;;;;;;;1.52;1.30;;;20.70;57.40;;;;;;5061406;28;20063;-58
2022/07/12 11:38:55;;;;;;;1.95;1.05;;;20.70;57.20;;;;;;5042622;28;20037;-59
2022/07/12 11:41:22;;;;;;;1.25;1.15;;;20.70;57.30;;;;;;5060943;28;20032;-57
2022/07/12 11:43:48;;;;;;;2.35;1.33;;;20.70;57.00;;;;;;5061727;28;20029;-56
2022/07/12 11:46:13;;;;;;;2.03;1.30;;;20.70;57.40;;;;;;5044374;28;20093;-56
2022/07/12 11:48:40;;;;;;;1.17;1.00;;;20.70;57.70;;;;;;5040513;28;20230;-57
2022/07/12 11:51:07;;;;;;;2.13;1.17;;;20.70;57.20;;;;;;5022736;28;20108;-57
2022/07/12 11:53:34;;;;;;;3.00;1.15;;;20.60;54.60;;;;;;5023442;28;20097;-58
2022/07/12 11:56:00;;;;;;;1.17;1.00;;;20.60;55.40;;;;;;5053839;28;20052;-57
2022/07/12 11:58:26;;;;;;;1.83;1.13;;;20.70;56.70;;;;;;5060399;28;20040;-58
2022/07/12 12:00:52;;;;;;;2.63;1.42;;;20.70;56.40;;;;;;5049416;28;20044;-57
2022/07/12 12:03:19;;;;;;;1.45;1.27;;;20.70;56.00;;;;;;5041003;28;20033;-58
2022/07/12 12:05:46;;;;;;;2.10;1.33;;;20.70;56.10;;;;;;5040851;28;20427;-57
2022/07/12 12:08:12;;;;;;;6.07;1.20;;;20.70;56.20;;;;;;5040532;28;20492;-57
2022/07/12 12:10:38;;;;;;;3.17;1.20;;;20.70;56.30;;;;;;5022303;28;20697;-57
2022/07/12 12:13:04;;;;;;;2.40;1.10;;;20.80;55.40;;;;;;5040654;28;20029;-56
2022/07/12 12:15:31;;;;;;;3.53;1.10;;;20.70;54.90;;;;;;5022583;28;20025;-57
2022/07/12 12:17:58;;;;;;;1.33;1.00;;;20.80;55.00;;;;;;5040670;28;20399;-58
2022/07/12 12:20:31;;;;;;;1.08;0.93;;;20.70;55.10;;;;;;5043938;28;20032;-56
2022/07/12 12:22:57;;;;;;;1.95;1.00;;;20.80;56.30;;;;;;5060374;28;20063;-57
2022/07/12 12:25:23;;;;;;;2.88;1.20;;;20.70;56.40;;;;;;5038913;28;20036;-57
2022/07/12 12:27:52;;;;;;;4.22;1.13;;;20.80;56.50;;;;;;5040098;28;20480;-56
2022/07/12 12:30:17;;;;;;;6.97;1.45;;;20.80;55.70;;;;;;5005630;28;20839;-58
2022/07/12 12:32:47;;;;;;;3.00;1.20;;;20.80;55.50;;;;;;5022382;28;20099;-57
2022/07/12 12:35:13;;;;;;;4.15;1.08;;;20.80;55.30;;;;;;5040379;28;20021;-57
2022/07/12 12:37:40;;;;;;;2.08;1.30;;;20.80;55.80;;;;;;5021372;28;20033;-58
2022/07/12 12:40:06;;;;;;;2.60;1.20;;;20.80;56.20;;;;;;5021957;28;20029;-56
2022/07/12 12:42:31;;;;;;;2.65;1.00;;;20.70;56.40;;;;;;5039579;28;20444;-56
2022/07/12 12:44:57;;;;;;;1.63;1.40;;;20.80;56.00;;;;;;5022011;28;20036;-56
2022/07/12 12:47:31;;;;;;;3.70;1.13;;;20.80;55.10;;;;;;5039536;28;20037;-56